createdAt,value
2018-08-30T00:02:07.580Z,10.60
2018-08-30T00:04:35.857Z,10.57
2018-08-30T00:07:04.105Z,11.07
2018-08-30T00:09:32.381Z,10.90
2018-08-30T00:12:00.626Z,10.83
2018-08-30T00:14:28.986Z,10.70
2018-08-30T00:16:57.248Z,11.70
2018-08-30T00:19:25.613Z,11.17
2018-08-30T00:21:53.987Z,11.07
2018-08-30T00:24:22.285Z,11.53
2018-08-30T00:26:50.574Z,11.40
2018-08-30T00:29:18.852Z,10.93
2018-08-30T00:31:47.100Z,10.83
2018-08-30T00:34:15.353Z,11.70
2018-08-30T00:36:43.636Z,12.17
2018-08-30T00:39:12.073Z,13.30
2018-08-30T00:41:40.311Z,12.50
2018-08-30T00:44:08.606Z,14.20
2018-08-30T00:46:36.882Z,13.40
2018-08-30T00:49:05.141Z,14.73
2018-08-30T00:51:33.484Z,13.23
2018-08-30T00:54:01.737Z,13.33
2018-08-30T00:56:30.037Z,13.47
2018-08-30T00:58:58.275Z,12.60
2018-08-30T01:01:26.562Z,13.20
2018-08-30T01:03:54.845Z,13.07
2018-08-30T01:06:23.194Z,13.57
2018-08-30T01:08:51.482Z,12.90
2018-08-30T01:11:19.760Z,12.83
2018-08-30T01:13:48.441Z,13.53
2018-08-30T01:16:16.772Z,13.10
2018-08-30T01:18:45.105Z,12.63
2018-08-30T01:21:13.417Z,12.30
2018-08-30T01:23:41.720Z,13.20
2018-08-30T01:26:09.994Z,12.33
2018-08-30T01:28:38.271Z,13.10
2018-08-30T01:31:06.537Z,12.30
2018-08-30T01:33:34.832Z,13.13
2018-08-30T01:36:03.143Z,12.27
2018-08-30T01:38:31.437Z,11.27
2018-08-30T01:40:59.676Z,12.07
2018-08-30T01:43:28.034Z,12.27
2018-08-30T01:45:56.500Z,12.40
2018-08-30T01:48:24.781Z,11.67
2018-08-30T01:50:53.093Z,11.87
2018-08-30T01:53:21.359Z,12.60
2018-08-30T01:55:49.661Z,12.17
2018-08-30T01:58:17.984Z,12.13
2018-08-30T02:00:46.389Z,11.10
2018-08-30T02:03:14.667Z,12.17
2018-08-30T02:05:42.948Z,12.10
2018-08-30T02:08:11.253Z,12.77
2018-08-30T02:10:39.532Z,11.67
2018-08-30T02:13:07.786Z,13.27
2018-08-30T02:15:39.696Z,12.93
2018-08-30T02:18:08.161Z,11.77
2018-08-30T02:20:39.231Z,12.20
2018-08-30T02:23:07.705Z,12.17
2018-08-30T02:25:35.960Z,12.03
2018-08-30T02:28:04.508Z,13.00
2018-08-30T02:30:32.815Z,12.73
2018-08-30T02:33:01.321Z,12.53
2018-08-30T02:35:29.538Z,12.43
2018-08-30T02:37:57.837Z,12.73
2018-08-30T02:40:26.210Z,11.93
2018-08-30T02:42:54.509Z,13.47
2018-08-30T02:45:22.795Z,14.00
2018-08-30T02:47:51.044Z,13.90
2018-08-30T02:50:19.369Z,15.23
2018-08-30T02:52:47.662Z,14.47
2018-08-30T02:55:15.913Z,14.90
2018-08-30T02:57:44.173Z,15.53
2018-08-30T03:00:12.481Z,16.97
2018-08-30T03:02:40.813Z,17.63
2018-08-30T03:05:09.057Z,16.90
2018-08-30T03:07:37.342Z,17.13
2018-08-30T03:10:05.628Z,18.00
2018-08-30T03:12:34.018Z,18.23
2018-08-30T03:15:12.977Z,20.67
2018-08-30T03:17:41.252Z,20.17
2018-08-30T03:20:10.972Z,19.97
2018-08-30T03:22:40.186Z,20.23
2018-08-30T03:25:08.492Z,21.73
2018-08-30T03:27:36.768Z,23.23
2018-08-30T03:30:05.959Z,20.93
2018-08-30T03:32:34.157Z,22.80
2018-08-30T03:35:02.430Z,23.73
2018-08-30T03:37:30.697Z,24.07
2018-08-30T03:39:58.973Z,23.67
2018-08-30T03:42:27.498Z,25.03
2018-08-30T03:44:55.726Z,22.57
2018-08-30T03:47:24.011Z,23.83
2018-08-30T03:49:52.385Z,24.10
2018-08-30T03:52:20.661Z,24.30
2018-08-30T03:54:48.907Z,22.73
2018-08-30T03:57:17.165Z,25.63
2018-08-30T03:59:45.405Z,25.47
2018-08-30T04:02:13.648Z,26.50
2018-08-30T04:04:41.913Z,25.23
2018-08-30T04:07:10.166Z,27.23
2018-08-30T04:09:38.421Z,27.70
2018-08-30T04:12:06.677Z,29.73
2018-08-30T04:14:34.946Z,31.37
2018-08-30T04:17:03.192Z,29.37
2018-08-30T04:19:31.429Z,30.47
2018-08-30T04:22:01.262Z,31.17
2018-08-30T04:24:29.496Z,34.30
2018-08-30T04:26:57.789Z,34.80
2018-08-30T04:29:26.028Z,33.33
2018-08-30T04:31:54.321Z,36.03
2018-08-30T04:34:22.551Z,34.47
2018-08-30T04:36:50.805Z,38.27
2018-08-30T04:39:19.073Z,39.77
2018-08-30T04:41:47.733Z,37.77
2018-08-30T04:44:16.019Z,38.37
2018-08-30T04:46:44.269Z,39.93
2018-08-30T04:49:12.521Z,40.87
2018-08-30T04:51:40.833Z,40.37
2018-08-30T04:54:09.117Z,40.10
2018-08-30T04:56:37.372Z,41.10
2018-08-30T04:59:05.676Z,44.40
2018-08-30T05:01:33.948Z,48.50
2018-08-30T05:04:02.285Z,49.23
2018-08-30T05:06:30.592Z,51.20
2018-08-30T05:08:58.872Z,45.90
2018-08-30T05:11:27.148Z,50.70
2018-08-30T05:13:55.396Z,49.77
2018-08-30T05:16:23.705Z,54.50
2018-08-30T05:18:51.962Z,52.63
2018-08-30T05:21:20.265Z,60.70
2018-08-30T05:23:48.510Z,51.70
2018-08-30T05:26:16.792Z,69.20
2018-08-30T05:28:45.209Z,58.00
2018-08-30T05:31:13.546Z,67.73
2018-08-30T05:33:41.817Z,61.97
2018-08-30T05:36:10.069Z,69.40
2018-08-30T05:38:38.293Z,71.57
2018-08-30T05:41:06.557Z,69.93
2018-08-30T05:43:35.024Z,71.43
2018-08-30T05:46:03.272Z,72.17
2018-08-30T05:48:31.550Z,70.70
2018-08-30T05:50:59.797Z,66.97
2018-08-30T05:53:28.247Z,75.27
2018-08-30T05:55:56.536Z,73.97
2018-08-30T05:58:24.800Z,67.80
2018-08-30T06:00:53.093Z,72.93
2018-08-30T06:03:21.521Z,66.40
2018-08-30T06:05:49.985Z,78.53
2018-08-30T06:08:18.251Z,70.67
2018-08-30T06:10:46.517Z,77.90
2018-08-30T06:13:14.766Z,73.40
2018-08-30T06:15:43.065Z,67.27
2018-08-30T06:18:11.380Z,83.97
2018-08-30T06:20:39.685Z,87.43
2018-08-30T06:23:08.164Z,71.77
2018-08-30T06:25:36.470Z,83.20
2018-08-30T06:28:04.753Z,69.07
2018-08-30T06:30:33.072Z,89.97
2018-08-30T06:33:01.362Z,83.13
2018-08-30T06:35:29.651Z,81.70
2018-08-30T06:37:57.942Z,86.53
2018-08-30T06:40:26.221Z,78.77
2018-08-30T06:42:54.521Z,76.30
2018-08-30T06:45:22.825Z,71.27
2018-08-30T06:47:51.313Z,74.10
2018-08-30T06:50:19.595Z,69.83
2018-08-30T06:52:47.862Z,56.20
2018-08-30T06:55:16.164Z,77.30
2018-08-30T06:57:44.444Z,67.23
2018-08-30T07:00:12.729Z,67.87
2018-08-30T07:02:41.093Z,68.80
2018-08-30T07:05:09.475Z,61.13
2018-08-30T07:07:37.757Z,59.27
2018-08-30T07:10:06.510Z,55.40
2018-08-30T07:12:34.828Z,61.30
2018-08-30T07:15:03.391Z,61.40
2018-08-30T07:17:31.660Z,50.20
2018-08-30T07:20:00.108Z,52.70
2018-08-30T07:22:28.335Z,55.63
2018-08-30T07:24:56.593Z,48.40
2018-08-30T07:27:24.882Z,48.77
2018-08-30T07:29:53.168Z,62.63
2018-08-30T07:32:21.512Z,50.53
2018-08-30T07:34:49.908Z,53.73
2018-08-30T07:37:18.059Z,62.20
2018-08-30T07:39:46.339Z,53.00
2018-08-30T07:42:14.585Z,56.87
2018-08-30T07:44:42.857Z,54.23
2018-08-30T07:47:11.124Z,51.33
2018-08-30T07:49:39.392Z,56.40
2018-08-30T07:52:07.661Z,52.97
2018-08-30T07:54:36.012Z,52.60
2018-08-30T07:57:04.272Z,50.90
2018-08-30T07:59:32.674Z,55.03
2018-08-30T08:02:01.061Z,53.60
2018-08-30T08:04:29.315Z,66.57
2018-08-30T08:06:57.574Z,66.93
2018-08-30T08:09:25.804Z,59.63
2018-08-30T08:11:54.059Z,54.50
2018-08-30T08:14:22.311Z,49.43
2018-08-30T08:16:50.798Z,68.63
2018-08-30T08:19:19.120Z,52.63
2018-08-30T08:21:48.509Z,62.57
2018-08-30T08:24:16.724Z,64.47
2018-08-30T08:26:44.979Z,56.53
2018-08-30T08:29:13.279Z,50.40
2018-08-30T08:31:41.633Z,57.27
2018-08-30T08:34:09.921Z,57.90
2018-08-30T08:36:38.320Z,56.83
2018-08-30T08:39:06.831Z,53.33
2018-08-30T08:41:35.117Z,58.57
2018-08-30T08:44:03.424Z,63.27
2018-08-30T08:46:31.802Z,68.77
2018-08-30T08:49:00.086Z,47.93
2018-08-30T08:51:28.332Z,50.90
2018-08-30T08:53:56.635Z,52.03
2018-08-30T08:56:24.869Z,47.27
2018-08-30T08:58:53.177Z,53.53
2018-08-30T09:01:21.460Z,62.37
2018-08-30T09:03:49.795Z,57.23
2018-08-30T09:06:18.041Z,47.33
2018-08-30T09:08:46.280Z,42.97
2018-08-30T09:11:14.635Z,42.73
2018-08-30T09:13:44.461Z,47.33
2018-08-30T09:16:12.721Z,46.57
2018-08-30T09:18:41.175Z,47.50
2018-08-30T09:21:09.609Z,44.43
2018-08-30T09:23:37.931Z,45.07
2018-08-30T09:26:06.231Z,45.27
2018-08-30T09:28:34.541Z,48.30
2018-08-30T09:31:02.885Z,47.77
2018-08-30T09:33:31.076Z,45.47
2018-08-30T09:35:59.342Z,50.00
2018-08-30T09:38:28.153Z,49.80
2018-08-30T09:40:56.447Z,53.67
2018-08-30T09:43:24.724Z,55.67
2018-08-30T09:45:53.139Z,55.43
2018-08-30T09:48:21.400Z,58.73
2018-08-30T09:50:49.661Z,48.70
2018-08-30T09:53:18.059Z,47.07
2018-08-30T09:55:46.386Z,54.90
2018-08-30T09:58:14.637Z,49.07
2018-08-30T10:01:47.533Z,51.37
2018-08-30T10:04:15.787Z,42.87
2018-08-30T10:06:44.061Z,41.33
2018-08-30T10:09:12.376Z,39.60
2018-08-30T10:11:40.781Z,44.33
2018-08-30T10:14:09.593Z,34.90
2018-08-30T10:16:37.925Z,37.20
2018-08-30T10:19:07.125Z,37.70
2018-08-30T10:21:35.549Z,41.33
2018-08-30T10:24:03.737Z,35.00
2018-08-30T10:26:32.057Z,33.87
2018-08-30T10:29:00.489Z,40.00
2018-08-30T10:31:28.760Z,38.20
2018-08-30T10:33:57.021Z,40.73
2018-08-30T10:36:25.321Z,40.73
2018-08-30T10:38:54.904Z,37.37
2018-08-30T10:41:23.170Z,34.17
2018-08-30T10:43:51.542Z,32.50
2018-08-30T10:46:21.521Z,32.43
2018-08-30T10:48:49.785Z,24.33
2018-08-30T10:51:18.137Z,31.13
2018-08-30T10:53:46.436Z,31.37
2018-08-30T10:56:14.848Z,26.37
2018-08-30T10:58:43.081Z,19.90
2018-08-30T11:01:11.328Z,23.83
2018-08-30T11:03:39.708Z,21.10
2018-08-30T11:06:07.961Z,28.60
2018-08-30T11:08:36.423Z,26.07
2018-08-30T11:11:04.784Z,25.80
2018-08-30T11:13:37.559Z,25.00
2018-08-30T11:16:05.829Z,28.73
2018-08-30T11:18:34.105Z,29.90
2018-08-30T11:21:02.369Z,33.20
2018-08-30T11:23:30.699Z,29.50
2018-08-30T11:25:58.932Z,34.07
2018-08-30T11:28:27.185Z,31.37
2018-08-30T11:30:55.493Z,31.57
2018-08-30T11:33:23.723Z,29.43
2018-08-30T11:35:52.102Z,27.40
2018-08-30T11:38:20.390Z,27.83
2018-08-30T11:40:48.722Z,25.40
2018-08-30T11:43:17.059Z,28.50
2018-08-30T11:45:45.302Z,30.20
2018-08-30T11:48:15.076Z,29.83
2018-08-30T11:50:43.325Z,25.43
2018-08-30T11:53:11.581Z,26.73
2018-08-30T11:55:39.852Z,24.57
2018-08-30T11:58:08.244Z,26.57
2018-08-30T12:00:36.552Z,25.57
2018-08-30T12:03:04.963Z,28.03
2018-08-30T12:05:33.468Z,24.00
2018-08-30T12:08:01.852Z,23.47
2018-08-30T12:10:30.571Z,22.97
2018-08-30T12:12:59.065Z,20.00
2018-08-30T12:15:27.642Z,19.27
2018-08-30T12:17:55.900Z,23.30
2018-08-30T12:20:24.300Z,22.33
2018-08-30T12:22:52.441Z,20.30
2018-08-30T12:25:20.733Z,20.73
2018-08-30T12:27:49.089Z,19.20
2018-08-30T12:30:17.633Z,18.63
2018-08-30T12:32:45.951Z,17.50
2018-08-30T12:35:14.304Z,15.87
2018-08-30T12:37:42.444Z,14.20
2018-08-30T12:40:10.815Z,17.00
2018-08-30T12:42:39.045Z,16.10
2018-08-30T12:45:07.292Z,15.97
2018-08-30T12:47:36.160Z,14.10
2018-08-30T12:50:04.731Z,14.23
2018-08-30T12:52:33.008Z,15.37
2018-08-30T12:55:01.348Z,13.27
2018-08-30T12:57:29.885Z,13.50
2018-08-30T12:59:58.291Z,15.17
2018-08-30T13:02:26.656Z,15.57
2018-08-30T13:04:54.882Z,12.90
2018-08-30T13:07:24.066Z,15.50
2018-08-30T13:09:52.470Z,13.87
2018-08-30T13:12:20.809Z,12.10
2018-08-30T13:14:49.189Z,11.73
2018-08-30T13:17:17.408Z,12.03
2018-08-30T13:19:45.905Z,11.97
2018-08-30T13:22:14.161Z,11.57
2018-08-30T13:24:42.393Z,12.33
2018-08-30T13:27:10.617Z,11.97
2018-08-30T13:29:38.951Z,12.50
2018-08-30T13:32:07.436Z,11.40
2018-08-30T13:34:35.553Z,11.10
2018-08-30T13:37:04.069Z,11.80
2018-08-30T13:39:32.338Z,12.33
2018-08-30T13:42:00.855Z,14.10
2018-08-30T13:44:28.850Z,14.73
2018-08-30T13:46:56.863Z,14.17
2018-08-30T13:49:25.115Z,15.87
2018-08-30T13:51:53.451Z,17.33
2018-08-30T13:54:21.841Z,17.27
2018-08-30T13:56:50.169Z,17.77
2018-08-30T13:59:18.544Z,18.00
2018-08-30T14:01:46.822Z,17.20
2018-08-30T14:04:14.761Z,15.27
2018-08-30T14:06:43.218Z,15.33
2018-08-30T14:09:11.463Z,15.30
2018-08-30T14:11:39.600Z,15.20
2018-08-30T14:14:07.955Z,14.80
2018-08-30T14:16:35.947Z,15.23
2018-08-30T14:19:04.476Z,13.80
2018-08-30T14:21:32.631Z,15.80
2018-08-30T14:24:00.904Z,15.57
2018-08-30T14:26:29.243Z,16.03
2018-08-30T14:28:57.440Z,15.53
2018-08-30T14:31:25.685Z,14.77
2018-08-30T14:33:53.976Z,13.63
2018-08-30T14:36:22.258Z,13.80
2018-08-30T14:38:50.602Z,11.63
2018-08-30T14:41:18.875Z,10.13
2018-08-30T14:43:47.140Z,10.63
2018-08-30T14:46:15.516Z,9.03
2018-08-30T14:48:43.708Z,9.17
2018-08-30T14:51:12.061Z,10.10
2018-08-30T14:53:40.571Z,9.40
2018-08-30T14:56:08.669Z,9.30
2018-08-30T14:58:36.949Z,10.00
2018-08-30T15:01:05.548Z,9.03
2018-08-30T15:03:33.815Z,10.33
2018-08-30T15:06:02.116Z,9.07
2018-08-30T15:08:30.381Z,9.47
2018-08-30T15:10:58.636Z,8.93
2018-08-30T15:13:26.920Z,7.97
2018-08-30T15:15:55.165Z,8.43
2018-08-30T15:18:23.465Z,8.17
2018-08-30T15:20:51.747Z,7.63
2018-08-30T15:23:20.089Z,6.87
2018-08-30T15:25:48.400Z,6.27
2018-08-30T15:28:16.702Z,5.50
2018-08-30T15:30:44.877Z,5.77
2018-08-30T15:33:13.115Z,5.70
2018-08-30T15:35:41.400Z,4.17
2018-08-30T15:38:09.686Z,4.43
2018-08-30T15:40:37.963Z,3.83
2018-08-30T15:43:06.252Z,5.03
2018-08-30T15:45:34.488Z,4.30
2018-08-30T15:48:02.807Z,4.40
2018-08-30T15:50:31.257Z,4.00
2018-08-30T15:52:59.543Z,4.53
2018-08-30T15:55:27.769Z,4.77
2018-08-30T15:57:56.020Z,4.00
2018-08-30T16:00:24.285Z,4.00
2018-08-30T16:02:52.513Z,4.10
2018-08-30T16:05:20.973Z,4.17
2018-08-30T16:07:49.131Z,3.53
2018-08-30T16:10:17.389Z,4.10
2018-08-30T16:12:45.662Z,3.67
2018-08-30T16:15:13.985Z,3.07
2018-08-30T16:17:42.468Z,2.97
2018-08-30T16:20:10.761Z,3.20
2018-08-30T16:23:48.157Z,3.20
2018-08-30T16:26:16.507Z,3.30
2018-08-30T16:28:44.773Z,3.30
2018-08-30T16:31:13.030Z,3.70
2018-08-30T16:33:41.368Z,3.47
2018-08-30T16:36:09.700Z,3.33
2018-08-30T16:38:37.948Z,3.10
2018-08-30T16:41:06.409Z,3.97
2018-08-30T16:43:34.520Z,3.87
2018-08-30T16:46:02.809Z,3.13
2018-08-30T16:48:31.039Z,3.40
2018-08-30T16:50:59.285Z,2.93
2018-08-30T16:53:27.582Z,3.07
2018-08-30T16:55:55.824Z,3.27
2018-08-30T16:58:24.081Z,3.20
2018-08-30T17:00:52.330Z,3.47
2018-08-30T17:03:20.596Z,3.30
2018-08-30T17:05:48.881Z,2.80
2018-08-30T17:08:17.089Z,3.13
2018-08-30T17:10:45.386Z,3.07
2018-08-30T17:13:13.610Z,2.83
2018-08-30T17:15:41.921Z,3.07
2018-08-30T17:18:10.220Z,3.27
2018-08-30T17:20:42.184Z,2.90
2018-08-30T17:23:10.701Z,2.73
2018-08-30T17:25:38.996Z,2.90
2018-08-30T17:28:07.276Z,2.67
2018-08-30T17:30:35.546Z,3.83
2018-08-30T17:33:03.834Z,3.17
2018-08-30T17:35:32.138Z,2.90
2018-08-30T17:38:00.428Z,3.10
2018-08-30T17:40:28.688Z,2.83
2018-08-30T17:42:56.958Z,3.30
2018-08-30T17:45:25.279Z,3.23
2018-08-30T17:47:53.490Z,2.77
2018-08-30T17:50:21.800Z,2.97
2018-08-30T17:52:50.061Z,2.60
2018-08-30T17:55:18.471Z,2.80
2018-08-30T17:57:46.738Z,3.20
2018-08-30T18:00:15.303Z,3.23
2018-08-30T18:02:44.596Z,3.20
2018-08-30T18:05:13.503Z,3.27
2018-08-30T18:07:41.829Z,3.10
2018-08-30T18:10:10.246Z,2.73
2018-08-30T18:12:39.139Z,2.93
2018-08-30T18:15:10.092Z,3.60
2018-08-30T18:17:38.340Z,3.03
2018-08-30T18:20:06.928Z,2.70
2018-08-30T18:22:41.732Z,2.87
2018-08-30T18:25:10.564Z,3.93
2018-08-30T18:27:38.835Z,2.80
2018-08-30T18:30:08.562Z,2.43
2018-08-30T18:32:36.827Z,2.60
2018-08-30T18:35:05.669Z,3.23
2018-08-30T18:37:33.846Z,2.90
2018-08-30T18:40:02.110Z,2.80
2018-08-30T18:42:30.493Z,2.83
2018-08-30T18:44:58.673Z,2.83
2018-08-30T18:47:27.011Z,3.00
2018-08-30T18:49:55.469Z,3.63
2018-08-30T18:52:23.772Z,3.20
2018-08-30T18:54:52.032Z,3.10
2018-08-30T18:57:20.413Z,3.10
2018-08-30T18:59:48.741Z,3.40
2018-08-30T19:02:17.009Z,3.10
2018-08-30T19:04:45.293Z,3.10
2018-08-30T19:07:13.885Z,3.40
2018-08-30T19:09:42.349Z,3.07
2018-08-30T19:12:10.781Z,2.90
2018-08-30T19:14:39.111Z,3.13
2018-08-30T19:17:12.761Z,3.23
2018-08-30T19:19:41.257Z,3.23
2018-08-30T19:22:09.692Z,2.93
2018-08-30T19:24:43.732Z,3.20
2018-08-30T19:27:12.116Z,3.10
2018-08-30T19:29:45.980Z,2.70
2018-08-30T19:32:22.980Z,3.23
2018-08-30T19:34:51.340Z,3.00
2018-08-30T19:37:19.789Z,3.03
2018-08-30T19:39:48.147Z,2.87
2018-08-30T19:42:16.417Z,3.20
2018-08-30T19:44:44.692Z,3.47
2018-08-30T19:47:13.066Z,3.30
2018-08-30T19:49:41.345Z,2.97
2018-08-30T19:52:09.625Z,3.20
2018-08-30T19:54:37.908Z,3.00
2018-08-30T19:57:06.242Z,3.70
2018-08-30T19:59:34.574Z,2.87
2018-08-30T20:02:02.905Z,3.07
2018-08-30T20:04:31.167Z,3.10
2018-08-30T20:06:59.521Z,2.73
2018-08-30T20:09:27.836Z,3.00
2018-08-30T20:11:56.077Z,3.07
2018-08-30T20:14:24.372Z,2.40
2018-08-30T20:16:59.109Z,2.63
2018-08-30T20:19:27.513Z,2.70
2018-08-30T20:21:55.880Z,3.20
2018-08-30T20:24:24.145Z,2.93
2018-08-30T20:26:52.422Z,3.13
2018-08-30T20:29:20.708Z,3.03
2018-08-30T20:31:48.998Z,3.17
2018-08-30T20:34:17.249Z,2.90
2018-08-30T20:36:45.565Z,2.60
2018-08-30T20:39:13.865Z,3.43
2018-08-30T20:41:42.296Z,3.10
2018-08-30T20:44:10.589Z,3.03
2018-08-30T20:46:38.949Z,3.30
2018-08-30T20:49:07.997Z,3.07
2018-08-30T20:51:36.341Z,3.10
2018-08-30T20:54:04.618Z,2.67
2018-08-30T20:56:33.125Z,2.63
2018-08-30T20:59:01.408Z,3.03
2018-08-30T21:01:29.716Z,3.43
2018-08-30T21:03:57.977Z,2.80
2018-08-30T21:06:26.317Z,2.97
2018-08-30T21:08:54.567Z,3.40
2018-08-30T21:11:22.873Z,2.90
2018-08-30T21:13:51.213Z,2.73
2018-08-30T21:16:19.520Z,2.80
2018-08-30T21:18:47.762Z,2.87
2018-08-30T21:21:16.086Z,2.57
2018-08-30T21:23:44.545Z,3.30
2018-08-30T21:26:12.819Z,3.10
2018-08-30T21:28:41.105Z,3.23
2018-08-30T21:31:09.409Z,2.73
2018-08-30T21:33:37.680Z,2.60
2018-08-30T21:36:06.032Z,2.90
2018-08-30T21:38:34.332Z,2.07
2018-08-30T21:41:02.600Z,2.63
2018-08-30T21:43:30.857Z,3.10
2018-08-30T21:45:59.177Z,2.80
2018-08-30T21:48:27.441Z,3.00
2018-08-30T21:50:55.737Z,3.10
2018-08-30T21:53:23.993Z,3.10
2018-08-30T21:55:52.222Z,2.93
2018-08-30T21:58:20.469Z,3.10
2018-08-30T22:00:48.816Z,3.03
2018-08-30T22:03:17.100Z,3.60
2018-08-30T22:05:45.448Z,2.67
2018-08-30T22:08:13.676Z,2.60
2018-08-30T22:10:42.104Z,3.50
2018-08-30T22:13:10.381Z,2.70
2018-08-30T22:15:38.620Z,2.50
2018-08-30T22:18:06.860Z,2.93
2018-08-30T22:20:35.149Z,3.10
2018-08-30T22:23:03.543Z,2.97
2018-08-30T22:25:31.765Z,3.17
2018-08-30T22:28:00.061Z,2.37
2018-08-30T22:30:28.324Z,2.37
2018-08-30T22:32:56.583Z,2.30
2018-08-30T22:35:24.856Z,3.33
2018-08-30T22:37:53.125Z,2.87
2018-08-30T22:40:21.411Z,2.77
2018-08-30T22:42:49.612Z,2.63
2018-08-30T22:45:17.853Z,2.87
2018-08-30T22:47:46.080Z,3.07
2018-08-30T22:50:14.328Z,3.20
2018-08-30T22:52:42.773Z,3.37
2018-08-30T22:55:11.035Z,3.40
2018-08-30T22:57:39.342Z,2.67
2018-08-30T23:00:07.533Z,2.80
2018-08-30T23:02:35.885Z,3.00
2018-08-30T23:05:04.205Z,2.90
2018-08-30T23:07:32.456Z,2.80
2018-08-30T23:10:00.733Z,2.60
2018-08-30T23:12:29.048Z,2.83
2018-08-30T23:14:57.296Z,3.00
2018-08-30T23:17:25.609Z,2.97
2018-08-30T23:19:53.868Z,3.20
2018-08-30T23:22:22.129Z,2.67
2018-08-30T23:24:50.409Z,2.60
2018-08-30T23:27:18.681Z,3.00
2018-08-30T23:29:46.948Z,3.03
2018-08-30T23:32:15.250Z,3.10
2018-08-30T23:34:43.515Z,3.10
2018-08-30T23:37:11.800Z,3.10
2018-08-30T23:39:40.130Z,2.97
2018-08-30T23:42:08.669Z,2.73
2018-08-30T23:44:36.937Z,2.70
2018-08-30T23:47:05.267Z,3.00
2018-08-30T23:49:33.560Z,3.40
2018-08-30T23:52:01.870Z,3.13
2018-08-30T23:54:30.181Z,3.57
2018-08-30T23:56:58.437Z,2.93
2018-08-30T23:59:38.064Z,3.30
